Airfield :
LOGIN :

Register | Disclaimer

   EN    FR    IT 

 










Legend :    VFR   Marginal VFR   IFR   Intensive IFR   Very Intensive IFR
Visi :
Ceiling :
>= 8 km
>= 3000ft
5 to 8 km
1000 to 3000 ft
1500m to 5 km
500 to 1000 ft
800 to 1500m
200 to 500 ft
< 800m
< 200 ft
Symbols :   Thunderstorms  Fog  Heavy snow  Heavy precipitations  Wind > 20 kt
SIGMETs :     Misc.  Thunderstorms  Icing  Turbulence  Mountain Waves  Volcanic Ashes







- Airport Elevation : 433 ft
- IATA code : CCF
- Download approach charts


LFMK - Carcassonne

CURRENT METAR :
  • 250430Z AUTO 09015KT 060V130 CAVOK 14/07 Q1002 TEMPO SHRA SCT020TCU BKN030

EXPIRED METARs :
  • 250400Z AUTO 09016KT CAVOK 14/07 Q1002 TEMPO SHRA SCT020TCU BKN030
  • 250330Z AUTO 07021KT CAVOK 13/07 Q1002 TEMPO SHRA SCT020TCU BKN030
  • 250300Z AUTO 08020KT CAVOK 14/07 Q1002 TEMPO SHRA SCT020TCU BKN030
  • 250230Z AUTO 07018KT CAVOK 13/07 Q1003
  • 250200Z AUTO 08018KT CAVOK 14/06 Q1003

TAF TAF LFMK
Valid from the 25 at 03:00 until the 26 at 03:00 UTC


250200Z 2503/2603 08015KT CAVOK
TEMPO 2504/2510 SHRA SCT020TCU BKN030
BECMG 2509/2512 SCT030
TEMPO 2512/2515 SHRA SCT030TCU BKN030
BECMG 2516/2518 24004KT
No reported NOTAMs for that airfield.
2 SIGMETs reported for the Bordeaux FIR (LFBB) :
 
Severe mountain waves
LFBB SIGMET 2 VALID 250300/250700 LFPW
LFBB BORDEAUX FIR/UIR SEV MTW FCST WI N4245 E00230 - N4215 E00230 - N4230 E00045 - N4300 E00100 - N4245 E00230 SFC/FL370 STNR WKN=
Severe turbulence
LFBB SIGMET 1 VALID 250300/250700 LFPW
LFBB BORDEAUX FIR/UIR SEV TURB FCST WI N4630 E00300 - N4315 E00230 - N4330 E00130 - N4630 E00300 SFC/FL080 STNR WKN=



MET'MAP, your aeronautical weather chart ! - Copyright ORBIFLY December 2007 - Disclaimer

ORBIFLY MET'MAP TEAM :

Programming & Development : Alexandra Zaïnal
Concept & Development : Baudouin d'Aumeries
Co-Development & Prog : Marc-Olivier Méhu
Technical & hardware support : Manuel Goepfert

Contact : metmap@orbifly.com




SOURCES & CREDITS :

   NOAA